createdAt,value
2022-09-21T00:00:51.272Z,10.57
2022-09-21T00:03:19.573Z,8.68
2022-09-21T00:05:47.430Z,8.10
2022-09-21T00:10:43.163Z,8.32
2022-09-21T00:13:13.796Z,8.90
2022-09-21T00:15:41.861Z,8.88
2022-09-21T00:20:43.379Z,8.73
2022-09-21T00:23:11.418Z,9.05
2022-09-21T00:25:39.266Z,10.52
2022-09-21T00:28:07.073Z,10.65
2022-09-21T00:30:34.975Z,10.65
2022-09-21T00:33:02.794Z,9.55
2022-09-21T00:35:32.156Z,9.48
2022-09-21T00:38:02.118Z,8.98
2022-09-21T00:40:30.851Z,9.43
2022-09-21T00:43:13.034Z,8.88
2022-09-21T00:45:41.444Z,9.57
2022-09-21T00:48:09.490Z,9.15
2022-09-21T00:53:08.868Z,9.75
2022-09-21T00:55:41.826Z,9.25
2022-09-21T00:58:15.516Z,9.75
2022-09-21T01:00:43.799Z,10.70
2022-09-21T01:03:14.046Z,9.88
2022-09-21T01:05:43.246Z,9.55
2022-09-21T01:08:13.992Z,8.63
2022-09-21T01:10:52.983Z,9.32
2022-09-21T01:13:31.592Z,8.73
2022-09-21T01:16:06.344Z,9.25
2022-09-21T01:18:43.161Z,10.02
2022-09-21T01:21:21.613Z,10.02
2022-09-21T01:24:16.118Z,9.48
2022-09-21T01:27:11.634Z,9.55
2022-09-21T01:29:45.760Z,9.88
2022-09-21T01:32:20.630Z,9.70
2022-09-21T01:34:54.308Z,9.07
2022-09-21T01:37:26.431Z,9.10
2022-09-21T01:40:00.031Z,10.27
2022-09-21T01:42:30.967Z,8.95
2022-09-21T01:45:04.579Z,10.05
2022-09-21T01:47:35.976Z,9.75
2022-09-21T01:50:06.807Z,9.13
2022-09-21T01:52:39.947Z,9.20
2022-09-21T01:55:14.732Z,9.68
2022-09-21T01:57:48.808Z,9.55
2022-09-21T02:00:18.547Z,9.13
2022-09-21T02:02:52.276Z,9.75
2022-09-21T02:05:23.760Z,9.50
2022-09-21T02:07:53.246Z,8.90
2022-09-21T02:10:28.483Z,9.55
2022-09-21T02:13:00.889Z,10.00
2022-09-21T02:15:40.990Z,9.75
2022-09-21T02:18:19.029Z,9.57
2022-09-21T02:20:54.345Z,10.02
2022-09-21T02:23:32.748Z,9.63
2022-09-21T02:26:07.886Z,9.30
2022-09-21T02:28:43.445Z,10.25
2022-09-21T02:31:21.732Z,10.60
2022-09-21T02:33:59.706Z,10.75
2022-09-21T02:36:35.530Z,10.27
2022-09-21T02:39:10.585Z,9.50
2022-09-21T02:41:45.560Z,9.18
2022-09-21T02:44:20.571Z,9.68
2022-09-21T02:46:54.770Z,9.40
2022-09-21T02:49:28.625Z,9.18
2022-09-21T02:52:00.235Z,9.82
2022-09-21T02:54:31.441Z,9.48
2022-09-21T02:57:01.382Z,9.32
2022-09-21T02:59:29.419Z,10.35
2022-09-21T03:04:27.794Z,9.93
2022-09-21T03:06:57.019Z,10.10
2022-09-21T03:09:24.963Z,8.93
2022-09-21T03:11:53.129Z,10.75
2022-09-21T03:14:20.957Z,9.85
2022-09-21T03:16:48.788Z,9.13
2022-09-21T03:19:17.976Z,9.75
2022-09-21T03:21:45.985Z,9.35
2022-09-21T03:24:33.860Z,9.40
2022-09-21T03:27:01.892Z,9.80
2022-09-21T03:29:29.795Z,10.05
2022-09-21T03:31:57.656Z,10.25
2022-09-21T03:34:27.021Z,9.88
2022-09-21T03:36:54.988Z,9.40
2022-09-21T03:39:22.972Z,9.38
2022-09-21T03:41:50.826Z,9.93
2022-09-21T03:44:19.972Z,10.45
2022-09-21T03:46:48.050Z,8.65
2022-09-21T03:49:15.882Z,9.00
2022-09-21T03:56:41.091Z,8.85
2022-09-21T03:59:13.762Z,9.98
2022-09-21T04:01:43.343Z,9.98
2022-09-21T04:04:11.268Z,10.23
2022-09-21T04:06:39.098Z,13.13
2022-09-21T04:09:08.584Z,11.50
2022-09-21T04:11:36.483Z,11.00
2022-09-21T04:16:33.301Z,10.68
2022-09-21T04:19:01.127Z,10.27
2022-09-21T04:21:29.858Z,10.00
2022-09-21T04:23:57.721Z,8.10
2022-09-21T04:28:56.298Z,9.85
2022-09-21T04:31:25.138Z,9.18
2022-09-21T04:33:54.351Z,9.98
2022-09-21T04:36:23.370Z,11.07
2022-09-21T04:38:51.817Z,10.15
2022-09-21T04:41:20.119Z,12.27
2022-09-21T04:43:49.666Z,10.05
2022-09-21T04:46:20.059Z,9.82
2022-09-21T04:48:49.698Z,10.38
2022-09-21T04:51:18.419Z,10.50
2022-09-21T04:53:46.828Z,10.02
2022-09-21T04:56:15.790Z,9.43
2022-09-21T04:58:43.906Z,10.30
2022-09-21T05:06:10.802Z,11.85
2022-09-21T05:08:55.871Z,11.85
2022-09-21T05:11:24.420Z,12.65
2022-09-21T05:13:52.782Z,15.73
2022-09-21T05:16:22.006Z,13.95
2022-09-21T05:18:49.949Z,14.85
2022-09-21T05:21:21.456Z,16.15
2022-09-21T05:23:49.496Z,17.35
2022-09-21T05:26:17.317Z,15.70
2022-09-21T05:28:45.796Z,16.70
2022-09-21T05:31:31.740Z,16.90
2022-09-21T05:34:06.354Z,17.27
2022-09-21T05:36:45.032Z,16.95
2022-09-21T05:41:41.777Z,14.90
2022-09-21T05:44:13.560Z,14.38
2022-09-21T05:46:55.338Z,13.82
2022-09-21T05:49:33.625Z,15.40
2022-09-21T05:52:11.649Z,16.73
2022-09-21T05:54:52.585Z,16.75
2022-09-21T05:57:31.043Z,17.10
2022-09-21T06:00:08.988Z,18.58
2022-09-21T06:02:59.417Z,18.90
2022-09-21T06:05:27.589Z,19.85
2022-09-21T06:10:24.153Z,16.23
2022-09-21T06:12:52.010Z,14.98
2022-09-21T06:15:19.980Z,13.88
2022-09-21T06:17:49.325Z,14.52
2022-09-21T06:20:17.413Z,15.48
2022-09-21T06:25:12.981Z,13.27
2022-09-21T06:27:40.835Z,11.82
2022-09-21T06:32:36.839Z,9.65
2022-09-21T06:35:07.179Z,9.98
2022-09-21T06:37:35.029Z,10.13
2022-09-21T06:40:03.350Z,11.82
2022-09-21T06:42:31.461Z,9.65
2022-09-21T06:44:59.245Z,9.43
2022-09-21T06:47:27.106Z,8.82
2022-09-21T06:49:56.459Z,9.52
2022-09-21T06:52:25.625Z,7.50
2022-09-21T06:54:53.570Z,9.38
2022-09-21T06:57:21.405Z,8.18
2022-09-21T06:59:49.415Z,7.25
2022-09-21T07:04:45.072Z,6.32
2022-09-21T07:07:13.107Z,6.50
2022-09-21T07:12:35.174Z,6.28
2022-09-21T07:15:03.895Z,20.23
2022-09-21T07:17:36.379Z,6.45
2022-09-21T07:20:05.959Z,5.53
2022-09-21T07:22:33.833Z,6.20
2022-09-21T07:25:03.138Z,6.38
2022-09-21T07:27:32.654Z,6.07
2022-09-21T07:30:00.482Z,6.22
2022-09-21T07:32:28.430Z,5.30
2022-09-21T07:34:56.977Z,6.80
2022-09-21T07:37:25.438Z,5.70
2022-09-21T07:39:54.623Z,5.97
2022-09-21T07:42:25.485Z,5.30
2022-09-21T07:45:03.154Z,5.40
2022-09-21T07:47:32.228Z,5.60
2022-09-21T07:50:00.046Z,5.25
2022-09-21T07:52:28.374Z,6.15
2022-09-21T07:54:56.255Z,6.13
2022-09-21T07:57:43.275Z,5.20
2022-09-21T08:00:12.554Z,5.38
2022-09-21T08:02:45.170Z,5.88
2022-09-21T08:05:16.046Z,5.43
2022-09-21T08:07:44.031Z,4.70
2022-09-21T08:10:12.484Z,4.97
2022-09-21T08:12:43.766Z,4.68
2022-09-21T08:15:30.684Z,4.55
2022-09-21T08:18:02.230Z,5.32
2022-09-21T08:20:30.162Z,4.80
2022-09-21T08:22:57.990Z,4.88
2022-09-21T08:25:27.199Z,4.53
2022-09-21T08:28:00.523Z,3.97
2022-09-21T08:30:31.003Z,5.18
2022-09-21T08:32:58.947Z,4.78
2022-09-21T08:35:26.775Z,4.80
2022-09-21T08:37:54.913Z,4.30
2022-09-21T08:40:23.256Z,4.07
2022-09-21T08:43:02.765Z,3.70
2022-09-21T08:45:35.481Z,4.03
2022-09-21T08:48:10.852Z,3.60
2022-09-21T08:50:45.312Z,3.30
2022-09-21T08:53:16.420Z,3.83
2022-09-21T08:55:44.546Z,3.08
2022-09-21T08:58:23.464Z,3.33
2022-09-21T09:01:06.923Z,2.80
2022-09-21T09:03:54.564Z,2.42
2022-09-21T09:06:30.712Z,2.67
2022-09-21T09:09:10.721Z,2.72
2022-09-21T09:11:55.891Z,2.75
2022-09-21T09:14:40.777Z,2.47
2022-09-21T09:17:26.181Z,2.53
2022-09-21T09:19:59.347Z,2.15
2022-09-21T09:22:31.305Z,2.97
2022-09-21T09:25:03.978Z,4.00
2022-09-21T09:27:37.449Z,2.30
2022-09-21T09:30:17.320Z,2.53
2022-09-21T09:32:53.477Z,2.22
2022-09-21T09:35:27.562Z,2.53
2022-09-21T09:38:00.893Z,2.70
2022-09-21T09:40:48.049Z,2.60
2022-09-21T09:43:26.824Z,3.05
2022-09-21T09:46:12.311Z,2.35
2022-09-21T09:48:56.053Z,2.75
2022-09-21T09:51:26.752Z,3.45
2022-09-21T09:54:00.070Z,2.33
2022-09-21T09:56:28.454Z,2.60
2022-09-21T09:59:00.105Z,3.03
2022-09-21T10:01:42.649Z,2.40
2022-09-21T10:04:12.531Z,1.85
2022-09-21T10:06:46.132Z,2.25
2022-09-21T10:09:25.042Z,2.38
2022-09-21T10:11:53.934Z,1.83
2022-09-21T10:14:24.885Z,1.83
2022-09-21T10:16:56.687Z,2.28
2022-09-21T10:19:27.336Z,2.78
2022-09-21T10:21:58.751Z,2.28
2022-09-21T10:24:29.172Z,1.70
2022-09-21T10:27:06.205Z,2.30
2022-09-21T10:29:42.056Z,2.13
2022-09-21T10:32:26.298Z,2.00
2022-09-21T10:35:13.482Z,2.15
2022-09-21T10:37:43.227Z,1.35
2022-09-21T10:40:36.616Z,1.73
2022-09-21T10:43:06.154Z,1.85
2022-09-21T10:45:37.060Z,2.83
2022-09-21T10:48:14.346Z,1.27
2022-09-21T10:50:44.357Z,1.75
2022-09-21T10:53:14.682Z,2.22
2022-09-21T10:55:58.440Z,1.77
2022-09-21T10:58:35.257Z,1.95
2022-09-21T11:01:13.006Z,1.67
2022-09-21T11:03:52.131Z,1.73
2022-09-21T11:06:25.171Z,1.70
2022-09-21T11:08:58.681Z,1.23
2022-09-21T11:11:39.494Z,1.27
2022-09-21T11:14:16.938Z,1.33
2022-09-21T11:16:52.141Z,1.20
2022-09-21T11:19:31.631Z,1.40
2022-09-21T11:22:07.697Z,1.20
2022-09-21T11:24:44.655Z,0.80
2022-09-21T11:27:18.133Z,1.75
2022-09-21T11:29:56.353Z,1.30
2022-09-21T11:32:36.031Z,1.45
2022-09-21T11:35:25.666Z,1.13
2022-09-21T11:38:05.963Z,1.00
2022-09-21T11:40:55.751Z,1.42
2022-09-21T11:43:41.425Z,1.38
2022-09-21T11:46:21.084Z,1.70
2022-09-21T11:49:21.918Z,1.00
2022-09-21T11:52:09.060Z,1.50
2022-09-21T11:54:55.336Z,1.42
2022-09-21T11:57:28.509Z,1.45
2022-09-21T12:00:09.811Z,1.40
2022-09-21T12:03:21.926Z,1.23
2022-09-21T12:06:04.404Z,1.20
2022-09-21T12:08:47.668Z,1.23
2022-09-21T12:11:29.625Z,1.38
2022-09-21T12:14:03.733Z,1.20
2022-09-21T12:16:39.726Z,1.77
2022-09-21T12:19:15.258Z,1.38
2022-09-21T12:21:47.926Z,1.10
2022-09-21T12:24:21.863Z,1.35
2022-09-21T12:26:55.537Z,1.38
2022-09-21T12:29:30.446Z,0.88
2022-09-21T12:32:05.362Z,1.30
2022-09-21T12:34:41.887Z,0.90
2022-09-21T12:37:15.743Z,1.02
2022-09-21T12:39:50.747Z,1.15
2022-09-21T12:42:31.278Z,1.35
2022-09-21T12:45:04.400Z,1.23
2022-09-21T12:47:48.417Z,3.42
2022-09-21T12:50:21.485Z,2.00
2022-09-21T12:52:51.330Z,1.67
2022-09-21T12:55:33.117Z,1.27
2022-09-21T12:58:17.043Z,1.52
2022-09-21T13:00:54.993Z,1.10
2022-09-21T13:03:33.300Z,1.40
2022-09-21T13:06:24.380Z,1.80
2022-09-21T13:08:52.984Z,1.27
2022-09-21T13:11:24.091Z,1.88
2022-09-21T13:13:59.288Z,1.10
2022-09-21T13:16:30.276Z,1.45
2022-09-21T13:19:01.411Z,1.27
2022-09-21T13:21:31.892Z,1.33
2022-09-21T13:24:01.990Z,1.10
2022-09-21T13:26:37.969Z,1.05
2022-09-21T13:29:29.282Z,0.90
2022-09-21T13:32:00.153Z,1.17
2022-09-21T13:34:31.710Z,1.20
2022-09-21T13:37:29.917Z,1.67
2022-09-21T13:40:40.919Z,1.35
2022-09-21T13:43:23.869Z,1.30
2022-09-21T13:45:55.753Z,1.27
2022-09-21T13:48:29.416Z,1.60
2022-09-21T13:51:01.407Z,1.30
2022-09-21T13:53:38.302Z,1.48
2022-09-21T13:56:17.304Z,1.30
2022-09-21T13:58:50.288Z,1.23
2022-09-21T14:01:45.054Z,1.95
2022-09-21T14:04:20.375Z,1.92
2022-09-21T14:06:51.733Z,1.20
2022-09-21T14:09:25.440Z,1.20
2022-09-21T14:11:59.028Z,1.00
2022-09-21T14:14:33.741Z,1.25
2022-09-21T14:17:03.125Z,1.50
2022-09-21T14:20:07.943Z,0.77
2022-09-21T14:22:38.704Z,1.23
2022-09-21T14:25:54.364Z,0.90
2022-09-21T14:28:35.031Z,1.40
2022-09-21T14:31:07.881Z,1.17
2022-09-21T14:33:45.899Z,1.52
2022-09-21T14:36:20.603Z,0.90
2022-09-21T14:38:54.795Z,1.15
2022-09-21T14:41:25.002Z,1.50
2022-09-21T14:43:56.486Z,0.95
2022-09-21T14:46:59.599Z,1.10
2022-09-21T14:50:04.224Z,1.02
2022-09-21T14:52:42.045Z,1.23
2022-09-21T14:55:19.707Z,1.10
2022-09-21T14:58:00.582Z,1.20
2022-09-21T15:00:39.515Z,1.20
2022-09-21T15:03:40.878Z,1.55
2022-09-21T15:06:43.031Z,1.27
2022-09-21T15:10:00.522Z,1.40
2022-09-21T15:12:40.438Z,0.90
2022-09-21T15:15:30.788Z,1.00
2022-09-21T15:18:00.576Z,1.20
2022-09-21T15:20:32.009Z,1.02
2022-09-21T15:23:02.040Z,1.58
2022-09-21T15:25:32.976Z,1.65
2022-09-21T15:28:01.176Z,1.10
2022-09-21T15:30:33.041Z,1.38
2022-09-21T15:33:02.701Z,1.52
2022-09-21T15:35:33.581Z,1.27
2022-09-21T15:38:02.008Z,1.60
2022-09-21T15:40:35.357Z,1.92
2022-09-21T15:43:05.530Z,2.40
2022-09-21T15:45:38.804Z,3.58
2022-09-21T15:48:13.087Z,1.42
2022-09-21T15:50:45.208Z,1.30
2022-09-21T15:53:21.718Z,1.60
2022-09-21T15:55:50.538Z,1.17
2022-09-21T15:58:31.660Z,1.42
2022-09-21T16:01:01.251Z,1.45
2022-09-21T16:03:29.856Z,1.00
2022-09-21T16:06:02.300Z,1.80
2022-09-21T16:08:35.010Z,1.30
2022-09-21T16:11:16.515Z,2.63
2022-09-21T16:14:03.330Z,2.17
2022-09-21T16:16:31.849Z,2.25
2022-09-21T16:19:00.538Z,1.52
2022-09-21T16:21:33.555Z,1.73
2022-09-21T16:24:12.587Z,2.63
2022-09-21T16:26:42.518Z,3.35
2022-09-21T16:29:19.942Z,2.42
2022-09-21T16:31:50.317Z,1.95
2022-09-21T16:34:22.701Z,2.30
2022-09-21T16:36:53.871Z,2.50
2022-09-21T16:39:22.701Z,2.40
2022-09-21T16:41:58.286Z,2.53
2022-09-21T16:44:44.574Z,2.20
2022-09-21T16:47:14.806Z,2.58
2022-09-21T16:49:43.350Z,3.10
2022-09-21T16:52:12.763Z,5.00
2022-09-21T16:54:40.828Z,2.67
2022-09-21T16:57:08.652Z,2.63
2022-09-21T17:02:05.880Z,2.70
2022-09-21T17:04:36.005Z,2.30
2022-09-21T17:07:05.861Z,1.98
2022-09-21T17:09:38.227Z,2.10
2022-09-21T17:12:07.921Z,2.65
2022-09-21T17:14:39.250Z,2.22
2022-09-21T17:17:14.145Z,2.75
2022-09-21T17:19:42.967Z,3.00
2022-09-21T17:22:17.032Z,3.05
2022-09-21T17:24:51.341Z,2.67
2022-09-21T17:27:21.805Z,4.38
2022-09-21T17:29:50.392Z,4.30
2022-09-21T17:32:20.636Z,4.95
2022-09-21T17:34:53.293Z,3.90
2022-09-21T17:37:21.905Z,4.15
2022-09-21T17:39:51.078Z,3.92
2022-09-21T17:42:21.634Z,3.70
2022-09-21T17:44:59.538Z,3.90
2022-09-21T17:47:29.229Z,3.40
2022-09-21T17:50:02.903Z,4.45
2022-09-21T17:52:49.150Z,4.10
2022-09-21T17:55:20.107Z,4.35
2022-09-21T17:57:59.312Z,5.10
2022-09-21T18:00:38.740Z,4.50
2022-09-21T18:03:21.681Z,5.05
2022-09-21T18:05:51.424Z,4.88
2022-09-21T18:08:19.712Z,6.20
2022-09-21T18:10:58.862Z,7.70
2022-09-21T18:13:38.100Z,9.90
2022-09-21T18:16:19.587Z,9.65
2022-09-21T18:18:56.223Z,8.35
2022-09-21T18:21:27.535Z,8.18
2022-09-21T18:24:21.377Z,7.65
2022-09-21T18:26:52.455Z,6.95
2022-09-21T18:29:45.694Z,5.72
2022-09-21T18:32:37.603Z,6.40
2022-09-21T18:35:22.640Z,7.38
2022-09-21T18:38:06.036Z,6.70
2022-09-21T18:40:40.212Z,5.85
2022-09-21T18:43:26.531Z,5.65
2022-09-21T18:46:01.631Z,5.47
2022-09-21T18:48:48.561Z,6.10
2022-09-21T18:51:24.917Z,5.88
2022-09-21T18:53:55.852Z,6.45
2022-09-21T18:56:25.038Z,5.80
2022-09-21T18:58:57.985Z,6.13
2022-09-21T19:01:29.501Z,5.38
2022-09-21T19:03:58.149Z,5.90
2022-09-21T19:06:35.516Z,5.60
2022-09-21T19:09:11.137Z,5.32
2022-09-21T19:11:44.666Z,5.20
2022-09-21T19:14:21.454Z,4.47
2022-09-21T19:17:03.295Z,4.50
2022-09-21T19:19:39.764Z,4.72
2022-09-21T19:22:16.436Z,5.15
2022-09-21T19:24:55.306Z,5.35
2022-09-21T19:27:31.122Z,6.13
2022-09-21T19:30:06.161Z,6.20
2022-09-21T19:32:37.698Z,6.38
2022-09-21T19:35:19.885Z,6.18
2022-09-21T19:37:48.634Z,6.30
2022-09-21T19:40:18.265Z,5.85
2022-09-21T19:43:20.932Z,7.35
2022-09-21T19:46:04.796Z,8.52
2022-09-21T19:48:42.328Z,7.55
2022-09-21T19:51:17.992Z,6.20
2022-09-21T19:54:04.569Z,7.25
2022-09-21T19:56:55.302Z,6.30
2022-09-21T19:59:42.144Z,6.75
2022-09-21T20:02:14.316Z,8.63
2022-09-21T20:04:49.957Z,7.75
2022-09-21T20:07:25.952Z,7.10
2022-09-21T20:10:06.490Z,7.63
2022-09-21T20:12:42.563Z,7.63
2022-09-21T20:15:15.688Z,7.38
2022-09-21T20:17:51.312Z,7.50
2022-09-21T20:20:23.161Z,6.18
2022-09-21T20:22:51.932Z,7.93
2022-09-21T20:25:23.625Z,6.55
2022-09-21T20:27:55.186Z,7.07
2022-09-21T20:30:26.611Z,6.60
2022-09-21T20:32:58.855Z,7.07
2022-09-21T20:35:28.864Z,5.97
2022-09-21T20:38:01.910Z,5.63
2022-09-21T20:40:31.758Z,7.57
2022-09-21T20:43:00.840Z,4.88
2022-09-21T20:45:29.866Z,5.45
2022-09-21T20:48:12.790Z,5.50
2022-09-21T20:50:41.621Z,5.13
2022-09-21T20:53:09.720Z,5.30
2022-09-21T20:58:05.604Z,4.82
2022-09-21T21:00:33.883Z,5.53
2022-09-21T21:03:03.618Z,5.93
2022-09-21T21:05:31.501Z,5.85
2022-09-21T21:07:59.428Z,6.00
2022-09-21T21:10:27.223Z,6.18
2022-09-21T21:12:55.057Z,6.68
2022-09-21T21:17:50.774Z,5.60
2022-09-21T21:20:19.945Z,6.25
2022-09-21T21:22:50.731Z,5.60
2022-09-21T21:25:19.038Z,6.18
2022-09-21T21:27:47.069Z,6.65
2022-09-21T21:30:15.052Z,5.03
2022-09-21T21:35:10.931Z,4.82
2022-09-21T21:37:40.316Z,5.28
2022-09-21T21:40:10.109Z,6.30
2022-09-21T21:42:38.046Z,5.90
2022-09-21T21:45:06.664Z,5.60
2022-09-21T21:47:39.714Z,5.18
2022-09-21T21:50:09.628Z,4.80
2022-09-21T21:52:37.514Z,5.22
2022-09-21T21:55:07.752Z,5.15
2022-09-21T21:57:35.706Z,5.03
2022-09-21T22:00:05.504Z,5.07
2022-09-21T22:02:33.829Z,5.03
2022-09-21T22:05:01.817Z,4.90
2022-09-21T22:07:29.611Z,4.80
2022-09-21T22:09:57.433Z,4.90
2022-09-21T22:12:26.564Z,4.57
2022-09-21T22:14:54.365Z,4.13
2022-09-21T22:17:23.085Z,4.35
2022-09-21T22:19:51.347Z,4.80
2022-09-21T22:22:19.156Z,4.63
2022-09-21T22:24:47.941Z,4.63
2022-09-21T22:27:16.360Z,4.32
2022-09-21T22:29:45.834Z,4.15
2022-09-21T22:32:13.642Z,4.70
2022-09-21T22:34:41.729Z,5.60
2022-09-21T22:39:37.358Z,4.68
2022-09-21T22:42:05.454Z,5.57
2022-09-21T22:44:33.308Z,5.13
2022-09-21T22:47:02.427Z,5.68
2022-09-21T22:49:30.227Z,5.93
2022-09-21T22:51:58.018Z,6.10
2022-09-21T22:54:26.536Z,5.50
2022-09-21T22:56:54.315Z,5.57
2022-09-21T22:59:22.163Z,5.68
2022-09-21T23:01:49.959Z,6.10
2022-09-21T23:04:20.602Z,7.00
2022-09-21T23:06:49.519Z,6.75
2022-09-21T23:09:19.501Z,6.60
2022-09-21T23:11:53.053Z,6.72
2022-09-21T23:14:22.721Z,6.43
2022-09-21T23:16:50.693Z,7.47
2022-09-21T23:19:19.827Z,8.73
2022-09-21T23:21:50.266Z,7.15
2022-09-21T23:24:19.049Z,6.65
2022-09-21T23:26:47.832Z,7.90
2022-09-21T23:29:16.996Z,8.60
2022-09-21T23:31:46.435Z,7.43
2022-09-21T23:34:15.344Z,8.18
2022-09-21T23:36:45.653Z,8.65
2022-09-21T23:39:15.360Z,7.80
2022-09-21T23:41:43.718Z,7.10
2022-09-21T23:44:11.864Z,8.07
2022-09-21T23:46:40.954Z,9.07
2022-09-21T23:49:09.021Z,8.93
2022-09-21T23:54:06.285Z,7.05
2022-09-21T23:56:34.708Z,7.72
2022-09-21T23:59:02.546Z,7.75
